TAF and METAR

METAR for Teniente R. Marsh Airport

SCRM 270400Z 10027KT 9999 -SHSN SCT020 OVC030 M02/M03 Q0980 NOSIG
Report created 27. feb 05:00
wind 27 knots from E (100°) visibility > 10km light snow showers scattered clouds (~50% cover) at 2000 feet overcast at 3000 feet Temperature -2° with dewpoint at -3° (Humidity 92.85%) Pressure 980 hPa no significant weather change expected the next couple of hours
No TAF available for Teniente R. Marsh Airport
Teniente R. Marsh Airport in Chile at 45m

Latest 5 airports